sensor_id;sensor_type;location;lat;lon;timestamp;temperature;humidity
23301;DHT22;11819;51.394;12.340;2023-04-09T00:00:34;6.40;88.90
23301;DHT22;11819;51.394;12.340;2023-04-09T00:03:00;6.30;89.10
23301;DHT22;11819;51.394;12.340;2023-04-09T00:05:26;6.30;89.30
23301;DHT22;11819;51.394;12.340;2023-04-09T00:07:51;6.30;89.30
23301;DHT22;11819;51.394;12.340;2023-04-09T00:10:17;6.30;89.30
23301;DHT22;11819;51.394;12.340;2023-04-09T00:12:43;6.30;89.40
23301;DHT22;11819;51.394;12.340;2023-04-09T00:15:08;6.30;89.40
23301;DHT22;11819;51.394;12.340;2023-04-09T00:17:34;6.30;89.00
23301;DHT22;11819;51.394;12.340;2023-04-09T00:20:00;6.20;88.90
23301;DHT22;11819;51.394;12.340;2023-04-09T00:22:25;6.20;89.40
23301;DHT22;11819;51.394;12.340;2023-04-09T00:24:51;6.10;89.60
23301;DHT22;11819;51.394;12.340;2023-04-09T00:27:16;6.10;89.70
23301;DHT22;11819;51.394;12.340;2023-04-09T00:29:42;6.10;89.80
23301;DHT22;11819;51.394;12.340;2023-04-09T00:32:07;6.10;89.80
23301;DHT22;11819;51.394;12.340;2023-04-09T00:34:33;6.10;90.00
23301;DHT22;11819;51.394;12.340;2023-04-09T00:36:59;6.10;89.80
23301;DHT22;11819;51.394;12.340;2023-04-09T00:39:25;6.00;89.50
23301;DHT22;11819;51.394;12.340;2023-04-09T00:41:57;6.00;89.60
23301;DHT22;11819;51.394;12.340;2023-04-09T00:44:24;5.90;89.50
23301;DHT22;11819;51.394;12.340;2023-04-09T00:46:51;5.90;89.70
23301;DHT22;11819;51.394;12.340;2023-04-09T00:49:17;5.80;90.00
23301;DHT22;11819;51.394;12.340;2023-04-09T00:51:44;5.80;89.80
23301;DHT22;11819;51.394;12.340;2023-04-09T00:54:11;5.80;89.80
23301;DHT22;11819;51.394;12.340;2023-04-09T00:56:37;5.80;89.70
23301;DHT22;11819;51.394;12.340;2023-04-09T00:59:03;5.70;89.70
23301;DHT22;11819;51.394;12.340;2023-04-09T01:01:29;5.70;89.80
23301;DHT22;11819;51.394;12.340;2023-04-09T01:03:55;5.70;90.00
23301;DHT22;11819;51.394;12.340;2023-04-09T01:09:05;5.80;90.40
23301;DHT22;11819;51.394;12.340;2023-04-09T01:11:50;5.80;90.30
23301;DHT22;11819;51.394;12.340;2023-04-09T01:14:52;5.80;90.20
23301;DHT22;11819;51.394;12.340;2023-04-09T01:17:34;5.80;90.10
23301;DHT22;11819;51.394;12.340;2023-04-09T01:20:09;5.70;89.90
23301;DHT22;11819;51.394;12.340;2023-04-09T01:22:55;5.60;89.70
23301;DHT22;11819;51.394;12.340;2023-04-09T01:28:14;5.60;90.00
23301;DHT22;11819;51.394;12.340;2023-04-09T01:30:47;5.60;90.10
23301;DHT22;11819;51.394;12.340;2023-04-09T01:33:14;5.60;90.20
23301;DHT22;11819;51.394;12.340;2023-04-09T01:35:45;5.60;90.40
23301;DHT22;11819;51.394;12.340;2023-04-09T01:38:13;5.70;90.50
23301;DHT22;11819;51.394;12.340;2023-04-09T01:40:39;5.70;90.60
23301;DHT22;11819;51.394;12.340;2023-04-09T01:43:06;5.70;90.40
23301;DHT22;11819;51.394;12.340;2023-04-09T01:45:33;5.70;90.30
23301;DHT22;11819;51.394;12.340;2023-04-09T01:47:59;5.70;90.30
23301;DHT22;11819;51.394;12.340;2023-04-09T01:50:26;5.60;90.20
23301;DHT22;11819;51.394;12.340;2023-04-09T01:52:52;5.60;90.20
23301;DHT22;11819;51.394;12.340;2023-04-09T01:55:18;5.50;90.10
23301;DHT22;11819;51.394;12.340;2023-04-09T01:57:43;5.40;90.10
23301;DHT22;11819;51.394;12.340;2023-04-09T02:00:10;5.40;90.10
23301;DHT22;11819;51.394;12.340;2023-04-09T02:02:58;5.30;90.10
23301;DHT22;11819;51.394;12.340;2023-04-09T02:05:24;5.30;90.30
23301;DHT22;11819;51.394;12.340;2023-04-09T02:07:55;5.30;90.40
23301;DHT22;11819;51.394;12.340;2023-04-09T02:10:23;5.30;90.40
23301;DHT22;11819;51.394;12.340;2023-04-09T02:12:52;5.30;90.30
23301;DHT22;11819;51.394;12.340;2023-04-09T02:15:20;5.30;90.30
23301;DHT22;11819;51.394;12.340;2023-04-09T02:17:46;5.30;90.30
23301;DHT22;11819;51.394;12.340;2023-04-09T02:20:18;5.30;90.30
23301;DHT22;11819;51.394;12.340;2023-04-09T02:22:45;5.30;90.30
23301;DHT22;11819;51.394;12.340;2023-04-09T02:25:11;5.30;90.40
23301;DHT22;11819;51.394;12.340;2023-04-09T02:27:36;5.30;90.30
23301;DHT22;11819;51.394;12.340;2023-04-09T02:30:03;5.20;90.20
23301;DHT22;11819;51.394;12.340;2023-04-09T02:32:29;5.20;90.20
23301;DHT22;11819;51.394;12.340;2023-04-09T02:34:54;5.20;90.10
23301;DHT22;11819;51.394;12.340;2023-04-09T02:37:20;5.10;90.00
23301;DHT22;11819;51.394;12.340;2023-04-09T02:39:46;5.10;89.80
23301;DHT22;11819;51.394;12.340;2023-04-09T02:42:11;5.00;90.00
23301;DHT22;11819;51.394;12.340;2023-04-09T02:44:37;5.00;90.20
23301;DHT22;11819;51.394;12.340;2023-04-09T02:47:03;5.00;90.30
23301;DHT22;11819;51.394;12.340;2023-04-09T02:49:29;5.00;90.30
23301;DHT22;11819;51.394;12.340;2023-04-09T02:51:55;5.00;90.30
23301;DHT22;11819;51.394;12.340;2023-04-09T02:54:20;5.00;90.30
23301;DHT22;11819;51.394;12.340;2023-04-09T02:56:46;5.00;90.30
23301;DHT22;11819;51.394;12.340;2023-04-09T02:59:11;5.00;90.30
23301;DHT22;11819;51.394;12.340;2023-04-09T03:01:37;5.00;90.40
23301;DHT22;11819;51.394;12.340;2023-04-09T03:04:03;5.00;90.50
23301;DHT22;11819;51.394;12.340;2023-04-09T03:06:28;5.00;90.40
23301;DHT22;11819;51.394;12.340;2023-04-09T03:08:54;5.00;90.40
23301;DHT22;11819;51.394;12.340;2023-04-09T03:11:20;5.00;90.50
23301;DHT22;11819;51.394;12.340;2023-04-09T03:13:45;5.00;90.50
23301;DHT22;11819;51.394;12.340;2023-04-09T03:16:11;5.00;90.50
23301;DHT22;11819;51.394;12.340;2023-04-09T03:18:36;5.00;90.50
23301;DHT22;11819;51.394;12.340;2023-04-09T03:21:06;5.00;90.40
23301;DHT22;11819;51.394;12.340;2023-04-09T03:23:34;4.90;90.30
23301;DHT22;11819;51.394;12.340;2023-04-09T03:26:04;4.90;90.20
23301;DHT22;11819;51.394;12.340;2023-04-09T03:28:35;4.80;90.10
23301;DHT22;11819;51.394;12.340;2023-04-09T03:31:01;4.80;90.10
23301;DHT22;11819;51.394;12.340;2023-04-09T03:33:30;4.80;90.10
23301;DHT22;11819;51.394;12.340;2023-04-09T03:35:57;4.70;90.20
23301;DHT22;11819;51.394;12.340;2023-04-09T03:38:35;4.70;90.30
23301;DHT22;11819;51.394;12.340;2023-04-09T03:41:06;4.80;90.30
23301;DHT22;11819;51.394;12.340;2023-04-09T03:43:33;4.80;90.50
23301;DHT22;11819;51.394;12.340;2023-04-09T03:45:59;4.80;90.50
23301;DHT22;11819;51.394;12.340;2023-04-09T03:48:25;4.80;90.50
23301;DHT22;11819;51.394;12.340;2023-04-09T03:50:51;4.90;90.60
23301;DHT22;11819;51.394;12.340;2023-04-09T03:53:24;4.90;90.60
23301;DHT22;11819;51.394;12.340;2023-04-09T03:55:56;4.90;90.60
23301;DHT22;11819;51.394;12.340;2023-04-09T03:58:25;4.90;90.60
23301;DHT22;11819;51.394;12.340;2023-04-09T04:00:51;5.00;90.70
23301;DHT22;11819;51.394;12.340;2023-04-09T04:03:30;4.90;90.60
23301;DHT22;11819;51.394;12.340;2023-04-09T04:06:18;4.90;90.60
23301;DHT22;11819;51.394;12.340;2023-04-09T04:08:53;4.90;90.60
23301;DHT22;11819;51.394;12.340;2023-04-09T04:11:22;4.90;90.70
23301;DHT22;11819;51.394;12.340;2023-04-09T04:13:51;4.90;90.60
23301;DHT22;11819;51.394;12.340;2023-04-09T04:16:16;4.90;90.60
23301;DHT22;11819;51.394;12.340;2023-04-09T04:18:42;4.80;90.50
23301;DHT22;11819;51.394;12.340;2023-04-09T04:21:13;4.80;90.50
23301;DHT22;11819;51.394;12.340;2023-04-09T04:23:42;4.70;90.40
23301;DHT22;11819;51.394;12.340;2023-04-09T04:26:16;4.70;90.90
23301;DHT22;11819;51.394;12.340;2023-04-09T04:28:42;4.60;90.40
23301;DHT22;11819;51.394;12.340;2023-04-09T04:31:12;4.60;90.30
23301;DHT22;11819;51.394;12.340;2023-04-09T04:33:40;4.60;90.40
23301;DHT22;11819;51.394;12.340;2023-04-09T04:36:11;4.60;90.40
23301;DHT22;11819;51.394;12.340;2023-04-09T04:38:45;4.60;90.30
23301;DHT22;11819;51.394;12.340;2023-04-09T04:41:17;4.60;90.30
23301;DHT22;11819;51.394;12.340;2023-04-09T04:43:49;4.50;90.40
23301;DHT22;11819;51.394;12.340;2023-04-09T04:46:20;4.50;90.50
23301;DHT22;11819;51.394;12.340;2023-04-09T04:48:47;4.50;90.50
23301;DHT22;11819;51.394;12.340;2023-04-09T04:51:13;4.50;90.70
23301;DHT22;11819;51.394;12.340;2023-04-09T04:53:44;4.50;90.60
23301;DHT22;11819;51.394;12.340;2023-04-09T04:56:13;4.50;90.70
23301;DHT22;11819;51.394;12.340;2023-04-09T04:58:45;4.50;90.80
23301;DHT22;11819;51.394;12.340;2023-04-09T05:01:11;4.60;91.00
23301;DHT22;11819;51.394;12.340;2023-04-09T05:03:37;4.60;91.00
23301;DHT22;11819;51.394;12.340;2023-04-09T05:06:21;4.70;91.10
23301;DHT22;11819;51.394;12.340;2023-04-09T05:08:48;4.70;91.10
23301;DHT22;11819;51.394;12.340;2023-04-09T05:11:14;4.70;91.10
23301;DHT22;11819;51.394;12.340;2023-04-09T05:13:42;4.70;91.10
23301;DHT22;11819;51.394;12.340;2023-04-09T05:16:18;4.70;91.10
23301;DHT22;11819;51.394;12.340;2023-04-09T05:18:47;4.70;91.10
23301;DHT22;11819;51.394;12.340;2023-04-09T05:21:13;4.70;91.10
23301;DHT22;11819;51.394;12.340;2023-04-09T05:23:41;4.70;91.10
23301;DHT22;11819;51.394;12.340;2023-04-09T05:26:07;4.80;91.20
23301;DHT22;11819;51.394;12.340;2023-04-09T05:28:48;4.80;91.20
23301;DHT22;11819;51.394;12.340;2023-04-09T05:31:17;4.90;91.30
23301;DHT22;11819;51.394;12.340;2023-04-09T05:34:03;4.90;91.30
23301;DHT22;11819;51.394;12.340;2023-04-09T05:36:36;4.90;91.30
23301;DHT22;11819;51.394;12.340;2023-04-09T05:39:02;5.00;91.40
23301;DHT22;11819;51.394;12.340;2023-04-09T05:41:29;5.00;91.40
23301;DHT22;11819;51.394;12.340;2023-04-09T05:44:15;5.00;91.50
23301;DHT22;11819;51.394;12.340;2023-04-09T05:46:42;5.10;91.70
23301;DHT22;11819;51.394;12.340;2023-04-09T05:49:08;5.20;91.70
23301;DHT22;11819;51.394;12.340;2023-04-09T05:51:36;5.20;91.70
23301;DHT22;11819;51.394;12.340;2023-04-09T05:54:02;5.30;91.70
23301;DHT22;11819;51.394;12.340;2023-04-09T05:56:32;5.30;91.80
23301;DHT22;11819;51.394;12.340;2023-04-09T05:58:59;5.40;91.90
23301;DHT22;11819;51.394;12.340;2023-04-09T06:01:24;5.50;91.90
23301;DHT22;11819;51.394;12.340;2023-04-09T06:03:50;5.50;92.00
23301;DHT22;11819;51.394;12.340;2023-04-09T06:06:16;5.70;91.90
23301;DHT22;11819;51.394;12.340;2023-04-09T06:08:42;5.80;91.70
23301;DHT22;11819;51.394;12.340;2023-04-09T06:11:09;5.80;91.70
23301;DHT22;11819;51.394;12.340;2023-04-09T06:13:35;5.80;91.70
23301;DHT22;11819;51.394;12.340;2023-04-09T06:16:07;5.90;91.70
23301;DHT22;11819;51.394;12.340;2023-04-09T06:18:35;6.00;91.70
23301;DHT22;11819;51.394;12.340;2023-04-09T06:21:02;6.00;91.70
23301;DHT22;11819;51.394;12.340;2023-04-09T06:23:28;6.10;91.70
23301;DHT22;11819;51.394;12.340;2023-04-09T06:25:54;6.10;91.70
23301;DHT22;11819;51.394;12.340;2023-04-09T06:28:19;6.20;91.80
23301;DHT22;11819;51.394;12.340;2023-04-09T06:30:45;6.30;91.70
23301;DHT22;11819;51.394;12.340;2023-04-09T06:33:11;6.40;91.70
23301;DHT22;11819;51.394;12.340;2023-04-09T06:35:37;6.40;91.60
23301;DHT22;11819;51.394;12.340;2023-04-09T06:38:03;6.50;91.70
23301;DHT22;11819;51.394;12.340;2023-04-09T06:40:29;6.50;91.70
23301;DHT22;11819;51.394;12.340;2023-04-09T06:42:54;6.50;91.80
23301;DHT22;11819;51.394;12.340;2023-04-09T06:45:26;6.60;91.90
23301;DHT22;11819;51.394;12.340;2023-04-09T06:47:52;6.70;91.80
23301;DHT22;11819;51.394;12.340;2023-04-09T06:50:17;6.70;91.60
23301;DHT22;11819;51.394;12.340;2023-04-09T06:52:43;6.80;92.00
23301;DHT22;11819;51.394;12.340;2023-04-09T06:55:09;6.80;91.60
23301;DHT22;11819;51.394;12.340;2023-04-09T06:57:35;6.90;91.60
23301;DHT22;11819;51.394;12.340;2023-04-09T07:00:03;7.00;91.60
23301;DHT22;11819;51.394;12.340;2023-04-09T07:02:28;7.00;91.60
23301;DHT22;11819;51.394;12.340;2023-04-09T07:04:55;7.10;91.60
23301;DHT22;11819;51.394;12.340;2023-04-09T07:07:20;7.20;91.60
23301;DHT22;11819;51.394;12.340;2023-04-09T07:09:47;7.30;91.40
23301;DHT22;11819;51.394;12.340;2023-04-09T07:12:13;7.40;91.20
23301;DHT22;11819;51.394;12.340;2023-04-09T07:14:38;7.50;91.00
23301;DHT22;11819;51.394;12.340;2023-04-09T07:17:04;7.50;90.80
23301;DHT22;11819;51.394;12.340;2023-04-09T07:19:29;7.50;90.70
23301;DHT22;11819;51.394;12.340;2023-04-09T07:21:55;7.50;90.50
23301;DHT22;11819;51.394;12.340;2023-04-09T07:24:21;7.60;90.40
23301;DHT22;11819;51.394;12.340;2023-04-09T07:26:46;7.60;90.40
23301;DHT22;11819;51.394;12.340;2023-04-09T07:29:12;7.70;90.40
23301;DHT22;11819;51.394;12.340;2023-04-09T07:31:38;7.70;90.40
23301;DHT22;11819;51.394;12.340;2023-04-09T07:34:03;7.80;90.40
23301;DHT22;11819;51.394;12.340;2023-04-09T07:36:29;7.80;90.30
23301;DHT22;11819;51.394;12.340;2023-04-09T07:38:56;7.90;90.40
23301;DHT22;11819;51.394;12.340;2023-04-09T07:41:22;7.90;90.20
23301;DHT22;11819;51.394;12.340;2023-04-09T07:43:47;8.00;90.50
23301;DHT22;11819;51.394;12.340;2023-04-09T07:46:19;8.10;90.00
23301;DHT22;11819;51.394;12.340;2023-04-09T07:48:46;8.10;89.50
23301;DHT22;11819;51.394;12.340;2023-04-09T07:51:11;8.20;89.40
23301;DHT22;11819;51.394;12.340;2023-04-09T07:53:37;8.20;89.30
23301;DHT22;11819;51.394;12.340;2023-04-09T07:56:03;8.20;89.20
23301;DHT22;11819;51.394;12.340;2023-04-09T07:58:28;8.30;88.90
23301;DHT22;11819;51.394;12.340;2023-04-09T08:00:54;8.30;88.60
23301;DHT22;11819;51.394;12.340;2023-04-09T08:03:19;8.30;88.00
23301;DHT22;11819;51.394;12.340;2023-04-09T08:05:46;8.30;88.00
23301;DHT22;11819;51.394;12.340;2023-04-09T08:08:12;8.30;88.10
23301;DHT22;11819;51.394;12.340;2023-04-09T08:10:38;8.30;88.00
23301;DHT22;11819;51.394;12.340;2023-04-09T08:13:03;8.40;88.10
23301;DHT22;11819;51.394;12.340;2023-04-09T08:15:29;8.50;87.80
23301;DHT22;11819;51.394;12.340;2023-04-09T08:17:55;8.50;87.60
23301;DHT22;11819;51.394;12.340;2023-04-09T08:20:21;8.50;87.40
23301;DHT22;11819;51.394;12.340;2023-04-09T08:22:46;8.60;87.50
23301;DHT22;11819;51.394;12.340;2023-04-09T08:25:12;8.50;86.90
23301;DHT22;11819;51.394;12.340;2023-04-09T08:27:37;8.60;86.90
23301;DHT22;11819;51.394;12.340;2023-04-09T08:30:04;8.60;86.80
23301;DHT22;11819;51.394;12.340;2023-04-09T08:32:30;8.60;86.10
23301;DHT22;11819;51.394;12.340;2023-04-09T08:34:55;8.60;86.00
23301;DHT22;11819;51.394;12.340;2023-04-09T08:37:21;8.70;85.80
23301;DHT22;11819;51.394;12.340;2023-04-09T08:39:47;8.80;85.50
23301;DHT22;11819;51.394;12.340;2023-04-09T08:42:13;8.90;84.90
23301;DHT22;11819;51.394;12.340;2023-04-09T08:44:40;8.90;84.00
23301;DHT22;11819;51.394;12.340;2023-04-09T08:47:07;8.90;83.70
23301;DHT22;11819;51.394;12.340;2023-04-09T08:49:34;8.90;83.70
23301;DHT22;11819;51.394;12.340;2023-04-09T08:52:00;9.00;83.60
23301;DHT22;11819;51.394;12.340;2023-04-09T08:54:26;9.10;83.50
23301;DHT22;11819;51.394;12.340;2023-04-09T08:56:51;9.10;83.30
23301;DHT22;11819;51.394;12.340;2023-04-09T08:59:17;9.20;83.10
23301;DHT22;11819;51.394;12.340;2023-04-09T09:01:43;9.20;82.90
23301;DHT22;11819;51.394;12.340;2023-04-09T09:04:09;9.30;82.80
23301;DHT22;11819;51.394;12.340;2023-04-09T09:06:39;9.20;82.00
23301;DHT22;11819;51.394;12.340;2023-04-09T09:09:10;9.20;82.10
23301;DHT22;11819;51.394;12.340;2023-04-09T09:11:46;9.10;81.80
23301;DHT22;11819;51.394;12.340;2023-04-09T09:14:17;9.10;82.20
23301;DHT22;11819;51.394;12.340;2023-04-09T09:21:57;9.20;82.20
23301;DHT22;11819;51.394;12.340;2023-04-09T09:24:22;9.30;81.80
23301;DHT22;11819;51.394;12.340;2023-04-09T09:26:48;9.30;81.90
23301;DHT22;11819;51.394;12.340;2023-04-09T09:29:14;9.40;82.00
23301;DHT22;11819;51.394;12.340;2023-04-09T09:31:47;9.50;82.00
23301;DHT22;11819;51.394;12.340;2023-04-09T09:34:14;9.50;81.80
23301;DHT22;11819;51.394;12.340;2023-04-09T09:36:40;9.60;81.90
23301;DHT22;11819;51.394;12.340;2023-04-09T09:39:05;9.60;81.90
23301;DHT22;11819;51.394;12.340;2023-04-09T09:41:35;9.60;81.80
23301;DHT22;11819;51.394;12.340;2023-04-09T09:44:00;9.70;81.60
23301;DHT22;11819;51.394;12.340;2023-04-09T09:46:30;9.70;81.60
23301;DHT22;11819;51.394;12.340;2023-04-09T09:48:58;9.80;81.50
23301;DHT22;11819;51.394;12.340;2023-04-09T09:51:25;9.80;81.20
23301;DHT22;11819;51.394;12.340;2023-04-09T09:53:54;9.80;81.20
23301;DHT22;11819;51.394;12.340;2023-04-09T09:56:23;9.90;81.60
23301;DHT22;11819;51.394;12.340;2023-04-09T09:59:06;9.90;81.90
23301;DHT22;11819;51.394;12.340;2023-04-09T10:01:36;10.00;82.10
23301;DHT22;11819;51.394;12.340;2023-04-09T10:04:04;10.10;82.00
23301;DHT22;11819;51.394;12.340;2023-04-09T10:06:31;10.10;81.80
23301;DHT22;11819;51.394;12.340;2023-04-09T10:09:02;10.10;81.30
23301;DHT22;11819;51.394;12.340;2023-04-09T10:11:30;10.10;81.20
23301;DHT22;11819;51.394;12.340;2023-04-09T10:13:56;10.20;80.80
23301;DHT22;11819;51.394;12.340;2023-04-09T10:16:24;10.20;80.20
23301;DHT22;11819;51.394;12.340;2023-04-09T10:18:50;10.20;80.00
23301;DHT22;11819;51.394;12.340;2023-04-09T10:21:42;10.20;80.20
23301;DHT22;11819;51.394;12.340;2023-04-09T10:24:09;10.30;80.40
23301;DHT22;11819;51.394;12.340;2023-04-09T10:26:39;10.40;80.30
23301;DHT22;11819;51.394;12.340;2023-04-09T10:29:12;10.40;80.20
23301;DHT22;11819;51.394;12.340;2023-04-09T10:32:03;10.50;80.50
23301;DHT22;11819;51.394;12.340;2023-04-09T10:34:29;10.60;80.90
23301;DHT22;11819;51.394;12.340;2023-04-09T10:36:59;10.60;81.10
23301;DHT22;11819;51.394;12.340;2023-04-09T10:39:31;10.70;81.50
23301;DHT22;11819;51.394;12.340;2023-04-09T10:41:59;10.70;80.90
23301;DHT22;11819;51.394;12.340;2023-04-09T10:44:26;10.80;80.10
23301;DHT22;11819;51.394;12.340;2023-04-09T10:46:55;10.80;80.20
23301;DHT22;11819;51.394;12.340;2023-04-09T10:49:23;10.80;80.00
23301;DHT22;11819;51.394;12.340;2023-04-09T10:51:54;10.80;79.80
23301;DHT22;11819;51.394;12.340;2023-04-09T10:59:37;11.00;80.40
23301;DHT22;11819;51.394;12.340;2023-04-09T11:02:07;11.10;80.00
23301;DHT22;11819;51.394;12.340;2023-04-09T11:07:18;11.10;79.40
23301;DHT22;11819;51.394;12.340;2023-04-09T11:09:46;11.10;79.80
23301;DHT22;11819;51.394;12.340;2023-04-09T11:12:12;11.20;79.30
23301;DHT22;11819;51.394;12.340;2023-04-09T11:14:37;11.20;79.20
23301;DHT22;11819;51.394;12.340;2023-04-09T11:17:03;11.30;79.10
23301;DHT22;11819;51.394;12.340;2023-04-09T11:19:29;11.30;79.40
23301;DHT22;11819;51.394;12.340;2023-04-09T11:21:54;11.40;79.00
23301;DHT22;11819;51.394;12.340;2023-04-09T11:24:20;11.50;78.40
23301;DHT22;11819;51.394;12.340;2023-04-09T11:26:47;11.50;78.20
23301;DHT22;11819;51.394;12.340;2023-04-09T11:29:13;11.60;78.70
23301;DHT22;11819;51.394;12.340;2023-04-09T11:31:43;11.70;78.70
23301;DHT22;11819;51.394;12.340;2023-04-09T11:34:09;11.80;78.90
23301;DHT22;11819;51.394;12.340;2023-04-09T11:36:36;11.90;79.10
23301;DHT22;11819;51.394;12.340;2023-04-09T11:39:03;11.90;78.80
23301;DHT22;11819;51.394;12.340;2023-04-09T11:41:33;12.00;77.80
23301;DHT22;11819;51.394;12.340;2023-04-09T11:44:01;12.00;77.20
23301;DHT22;11819;51.394;12.340;2023-04-09T11:46:29;12.10;77.30
23301;DHT22;11819;51.394;12.340;2023-04-09T11:48:56;12.20;76.50
23301;DHT22;11819;51.394;12.340;2023-04-09T11:51:22;12.30;76.00
23301;DHT22;11819;51.394;12.340;2023-04-09T11:53:48;12.30;75.40
23301;DHT22;11819;51.394;12.340;2023-04-09T11:56:15;12.40;75.20
23301;DHT22;11819;51.394;12.340;2023-04-09T11:58:45;12.50;74.80
23301;DHT22;11819;51.394;12.340;2023-04-09T12:01:11;12.50;74.30
23301;DHT22;11819;51.394;12.340;2023-04-09T12:03:37;12.70;74.30
23301;DHT22;11819;51.394;12.340;2023-04-09T12:06:04;12.80;73.90
23301;DHT22;11819;51.394;12.340;2023-04-09T12:08:30;12.90;74.10
23301;DHT22;11819;51.394;12.340;2023-04-09T12:11:13;12.90;73.30
23301;DHT22;11819;51.394;12.340;2023-04-09T12:13:39;13.00;71.30
23301;DHT22;11819;51.394;12.340;2023-04-09T12:16:07;13.10;70.40
23301;DHT22;11819;51.394;12.340;2023-04-09T12:18:37;13.20;71.00
23301;DHT22;11819;51.394;12.340;2023-04-09T12:21:04;13.30;70.40
23301;DHT22;11819;51.394;12.340;2023-04-09T12:23:31;13.40;69.00
23301;DHT22;11819;51.394;12.340;2023-04-09T12:25:56;13.50;68.80
23301;DHT22;11819;51.394;12.340;2023-04-09T12:28:26;13.70;68.90
23301;DHT22;11819;51.394;12.340;2023-04-09T12:30:52;13.80;69.00
23301;DHT22;11819;51.394;12.340;2023-04-09T12:33:18;14.00;68.40
23301;DHT22;11819;51.394;12.340;2023-04-09T12:35:44;14.10;66.70
23301;DHT22;11819;51.394;12.340;2023-04-09T12:38:09;14.20;65.40
23301;DHT22;11819;51.394;12.340;2023-04-09T12:40:35;14.30;65.00
23301;DHT22;11819;51.394;12.340;2023-04-09T12:43:01;14.40;64.10
23301;DHT22;11819;51.394;12.340;2023-04-09T12:45:28;14.60;63.10
23301;DHT22;11819;51.394;12.340;2023-04-09T12:47:54;14.70;61.90
23301;DHT22;11819;51.394;12.340;2023-04-09T12:50:19;14.90;61.00
23301;DHT22;11819;51.394;12.340;2023-04-09T12:52:45;15.10;61.40
23301;DHT22;11819;51.394;12.340;2023-04-09T12:55:12;15.30;60.00
23301;DHT22;11819;51.394;12.340;2023-04-09T12:57:40;15.50;61.20
23301;DHT22;11819;51.394;12.340;2023-04-09T13:00:06;15.80;61.80
23301;DHT22;11819;51.394;12.340;2023-04-09T13:02:33;16.10;61.60
23301;DHT22;11819;51.394;12.340;2023-04-09T13:04:59;16.50;60.40
23301;DHT22;11819;51.394;12.340;2023-04-09T13:07:24;16.80;59.50
23301;DHT22;11819;51.394;12.340;2023-04-09T13:09:54;17.20;60.10
23301;DHT22;11819;51.394;12.340;2023-04-09T13:12:19;17.60;58.40
23301;DHT22;11819;51.394;12.340;2023-04-09T13:14:46;17.80;56.60
23301;DHT22;11819;51.394;12.340;2023-04-09T13:17:13;17.90;55.90
23301;DHT22;11819;51.394;12.340;2023-04-09T13:19:39;18.00;54.90
23301;DHT22;11819;51.394;12.340;2023-04-09T13:22:05;18.20;54.60
23301;DHT22;11819;51.394;12.340;2023-04-09T13:24:36;18.40;54.10
23301;DHT22;11819;51.394;12.340;2023-04-09T13:27:05;18.60;53.90
23301;DHT22;11819;51.394;12.340;2023-04-09T13:29:31;18.90;54.30
23301;DHT22;11819;51.394;12.340;2023-04-09T13:31:57;19.20;53.20
23301;DHT22;11819;51.394;12.340;2023-04-09T13:34:23;19.40;52.70
23301;DHT22;11819;51.394;12.340;2023-04-09T13:36:49;19.70;52.30
23301;DHT22;11819;51.394;12.340;2023-04-09T13:39:14;19.90;51.60
23301;DHT22;11819;51.394;12.340;2023-04-09T13:41:40;20.10;51.10
23301;DHT22;11819;51.394;12.340;2023-04-09T13:44:06;20.30;50.40
23301;DHT22;11819;51.394;12.340;2023-04-09T13:46:31;20.50;49.10
23301;DHT22;11819;51.394;12.340;2023-04-09T13:48:58;20.50;47.60
23301;DHT22;11819;51.394;12.340;2023-04-09T13:51:25;20.50;48.60
23301;DHT22;11819;51.394;12.340;2023-04-09T13:53:51;20.70;48.60
23301;DHT22;11819;51.394;12.340;2023-04-09T13:56:17;20.90;48.80
23301;DHT22;11819;51.394;12.340;2023-04-09T13:58:42;21.20;48.20
23301;DHT22;11819;51.394;12.340;2023-04-09T14:01:09;21.40;47.60
23301;DHT22;11819;51.394;12.340;2023-04-09T14:03:35;21.60;47.20
23301;DHT22;11819;51.394;12.340;2023-04-09T14:06:05;21.60;45.70
23301;DHT22;11819;51.394;12.340;2023-04-09T14:08:30;21.60;45.70
23301;DHT22;11819;51.394;12.340;2023-04-09T14:10:56;21.70;45.80
23301;DHT22;11819;51.394;12.340;2023-04-09T14:13:21;21.70;45.60
23301;DHT22;11819;51.394;12.340;2023-04-09T14:15:47;21.90;45.60
23301;DHT22;11819;51.394;12.340;2023-04-09T14:18:14;22.00;44.50
23301;DHT22;11819;51.394;12.340;2023-04-09T14:20:40;22.20;44.40
23301;DHT22;11819;51.394;12.340;2023-04-09T14:23:05;22.30;44.70
23301;DHT22;11819;51.394;12.340;2023-04-09T14:25:31;22.40;43.70
23301;DHT22;11819;51.394;12.340;2023-04-09T14:27:56;22.40;43.30
23301;DHT22;11819;51.394;12.340;2023-04-09T14:30:23;22.50;43.60
23301;DHT22;11819;51.394;12.340;2023-04-09T14:32:49;22.50;42.60
23301;DHT22;11819;51.394;12.340;2023-04-09T14:35:14;22.60;42.80
23301;DHT22;11819;51.394;12.340;2023-04-09T14:37:40;22.80;42.80
23301;DHT22;11819;51.394;12.340;2023-04-09T14:40:07;23.00;42.00
23301;DHT22;11819;51.394;12.340;2023-04-09T14:42:33;23.00;41.70
23301;DHT22;11819;51.394;12.340;2023-04-09T14:44:58;23.10;42.10
23301;DHT22;11819;51.394;12.340;2023-04-09T14:47:24;23.20;41.60
23301;DHT22;11819;51.394;12.340;2023-04-09T14:49:49;23.20;41.40
23301;DHT22;11819;51.394;12.340;2023-04-09T14:52:15;23.10;41.40
23301;DHT22;11819;51.394;12.340;2023-04-09T14:54:41;23.10;41.50
23301;DHT22;11819;51.394;12.340;2023-04-09T14:57:06;23.10;41.90
23301;DHT22;11819;51.394;12.340;2023-04-09T14:59:33;23.10;41.50
23301;DHT22;11819;51.394;12.340;2023-04-09T15:01:59;23.20;41.30
23301;DHT22;11819;51.394;12.340;2023-04-09T15:04:24;23.30;41.40
23301;DHT22;11819;51.394;12.340;2023-04-09T15:06:50;23.40;41.40
23301;DHT22;11819;51.394;12.340;2023-04-09T15:09:16;23.50;40.90
23301;DHT22;11819;51.394;12.340;2023-04-09T15:11:42;23.60;40.50
23301;DHT22;11819;51.394;12.340;2023-04-09T15:14:07;23.50;40.20
23301;DHT22;11819;51.394;12.340;2023-04-09T15:16:33;23.50;40.60
23301;DHT22;11819;51.394;12.340;2023-04-09T15:19:01;23.50;40.50
23301;DHT22;11819;51.394;12.340;2023-04-09T15:21:27;23.50;41.10
23301;DHT22;11819;51.394;12.340;2023-04-09T15:23:53;23.50;40.30
23301;DHT22;11819;51.394;12.340;2023-04-09T15:26:18;23.60;40.60
23301;DHT22;11819;51.394;12.340;2023-04-09T15:28:45;23.60;40.00
23301;DHT22;11819;51.394;12.340;2023-04-09T15:31:11;23.50;39.90
23301;DHT22;11819;51.394;12.340;2023-04-09T15:33:37;23.60;40.30
23301;DHT22;11819;51.394;12.340;2023-04-09T15:36:02;23.50;39.70
23301;DHT22;11819;51.394;12.340;2023-04-09T15:38:28;23.50;39.60
23301;DHT22;11819;51.394;12.340;2023-04-09T15:40:56;23.50;39.90
23301;DHT22;11819;51.394;12.340;2023-04-09T15:43:22;23.50;38.90
23301;DHT22;11819;51.394;12.340;2023-04-09T15:45:51;23.30;38.40